sensor_id;sensor_type;location;lat;lon;timestamp;P1;durP1;ratioP1;P2;durP2;ratioP2
58992;SDS011;44782;0.000;0.000;2022-10-24T00:00:10;2.15;;;1.70;;
58992;SDS011;44782;0.000;0.000;2022-10-24T00:02:27;3.08;;;1.40;;
58992;SDS011;44782;0.000;0.000;2022-10-24T00:04:42;1.75;;;1.50;;
58992;SDS011;44782;0.000;0.000;2022-10-24T00:06:58;1.92;;;1.40;;
58992;SDS011;44782;0.000;0.000;2022-10-24T00:09:14;2.63;;;1.38;;
58992;SDS011;44782;0.000;0.000;2022-10-24T00:11:29;1.88;;;1.40;;
58992;SDS011;44782;0.000;0.000;2022-10-24T00:13:45;2.53;;;1.60;;
58992;SDS011;44782;0.000;0.000;2022-10-24T00:16:01;2.22;;;1.40;;
58992;SDS011;44782;0.000;0.000;2022-10-24T00:18:16;2.47;;;1.42;;
58992;SDS011;44782;0.000;0.000;2022-10-24T00:20:32;3.30;;;1.50;;
58992;SDS011;44782;0.000;0.000;2022-10-24T00:22:47;2.42;;;1.60;;
58992;SDS011;44782;0.000;0.000;2022-10-24T00:25:03;1.98;;;1.30;;
58992;SDS011;44782;0.000;0.000;2022-10-24T00:27:19;2.13;;;1.52;;
58992;SDS011;44782;0.000;0.000;2022-10-24T00:29:35;1.40;;;1.20;;
58992;SDS011;44782;0.000;0.000;2022-10-24T00:31:50;1.60;;;1.45;;
58992;SDS011;44782;0.000;0.000;2022-10-24T00:34:06;1.90;;;1.48;;
58992;SDS011;44782;0.000;0.000;2022-10-24T00:36:22;2.22;;;1.50;;
58992;SDS011;44782;0.000;0.000;2022-10-24T00:38:38;2.03;;;1.38;;
58992;SDS011;44782;0.000;0.000;2022-10-24T00:40:54;3.88;;;1.73;;
58992;SDS011;44782;0.000;0.000;2022-10-24T00:43:20;1.95;;;1.40;;
58992;SDS011;44782;0.000;0.000;2022-10-24T00:45:41;1.88;;;1.50;;
58992;SDS011;44782;0.000;0.000;2022-10-24T00:47:58;2.72;;;1.30;;
58992;SDS011;44782;0.000;0.000;2022-10-24T00:50:14;1.77;;;1.40;;
58992;SDS011;44782;0.000;0.000;2022-10-24T00:52:31;3.40;;;1.40;;
58992;SDS011;44782;0.000;0.000;2022-10-24T00:54:51;1.55;;;1.30;;
58992;SDS011;44782;0.000;0.000;2022-10-24T00:59:36;1.58;;;1.40;;
58992;SDS011;44782;0.000;0.000;2022-10-24T01:01:55;2.10;;;1.42;;
58992;SDS011;44782;0.000;0.000;2022-10-24T01:04:11;2.40;;;1.60;;
58992;SDS011;44782;0.000;0.000;2022-10-24T01:14:00;2.05;;;1.50;;
58992;SDS011;44782;0.000;0.000;2022-10-24T01:16:34;3.03;;;1.73;;
58992;SDS011;44782;0.000;0.000;2022-10-24T01:22:02;2.58;;;1.45;;
58992;SDS011;44782;0.000;0.000;2022-10-24T01:34:14;2.40;;;1.50;;
58992;SDS011;44782;0.000;0.000;2022-10-24T01:36:38;2.78;;;1.50;;
58992;SDS011;44782;0.000;0.000;2022-10-24T01:39:02;2.78;;;1.50;;
58992;SDS011;44782;0.000;0.000;2022-10-24T01:41:23;2.70;;;1.80;;
58992;SDS011;44782;0.000;0.000;2022-10-24T01:43:43;2.38;;;1.52;;
58992;SDS011;44782;0.000;0.000;2022-10-24T01:46:08;1.58;;;1.30;;
58992;SDS011;44782;0.000;0.000;2022-10-24T01:48:27;1.95;;;1.40;;
58992;SDS011;44782;0.000;0.000;2022-10-24T01:50:47;2.47;;;1.40;;
58992;SDS011;44782;0.000;0.000;2022-10-24T01:53:06;2.55;;;1.50;;
58992;SDS011;44782;0.000;0.000;2022-10-24T01:55:23;2.42;;;1.63;;
58992;SDS011;44782;0.000;0.000;2022-10-24T01:57:40;2.80;;;1.40;;
58992;SDS011;44782;0.000;0.000;2022-10-24T01:59:56;1.98;;;1.45;;
58992;SDS011;44782;0.000;0.000;2022-10-24T02:02:17;2.75;;;1.40;;
58992;SDS011;44782;0.000;0.000;2022-10-24T02:04:37;1.95;;;1.42;;
58992;SDS011;44782;0.000;0.000;2022-10-24T02:07:00;2.42;;;1.50;;
58992;SDS011;44782;0.000;0.000;2022-10-24T02:09:18;3.00;;;1.70;;
58992;SDS011;44782;0.000;0.000;2022-10-24T02:11:34;2.75;;;1.60;;
58992;SDS011;44782;0.000;0.000;2022-10-24T02:14:11;2.40;;;1.70;;
58992;SDS011;44782;0.000;0.000;2022-10-24T02:16:31;2.58;;;1.35;;
58992;SDS011;44782;0.000;0.000;2022-10-24T02:18:48;1.67;;;1.42;;
58992;SDS011;44782;0.000;0.000;2022-10-24T02:23:41;2.42;;;1.40;;
58992;SDS011;44782;0.000;0.000;2022-10-24T02:26:10;1.92;;;1.50;;
58992;SDS011;44782;0.000;0.000;2022-10-24T02:28:32;2.50;;;1.40;;
58992;SDS011;44782;0.000;0.000;2022-10-24T02:31:02;2.28;;;1.60;;
58992;SDS011;44782;0.000;0.000;2022-10-24T02:33:22;2.60;;;1.75;;
58992;SDS011;44782;0.000;0.000;2022-10-24T02:35:40;2.63;;;1.73;;
58992;SDS011;44782;0.000;0.000;2022-10-24T02:37:59;2.08;;;1.27;;
58992;SDS011;44782;0.000;0.000;2022-10-24T02:40:23;2.03;;;1.50;;
58992;SDS011;44782;0.000;0.000;2022-10-24T02:42:39;2.45;;;1.45;;
58992;SDS011;44782;0.000;0.000;2022-10-24T02:44:56;2.33;;;1.67;;
58992;SDS011;44782;0.000;0.000;2022-10-24T02:47:13;1.95;;;1.50;;
58992;SDS011;44782;0.000;0.000;2022-10-24T02:49:30;2.00;;;1.50;;
58992;SDS011;44782;0.000;0.000;2022-10-24T02:51:45;2.88;;;1.50;;
58992;SDS011;44782;0.000;0.000;2022-10-24T02:54:02;2.65;;;1.67;;
58992;SDS011;44782;0.000;0.000;2022-10-24T02:56:18;1.95;;;1.40;;
58992;SDS011;44782;0.000;0.000;2022-10-24T02:58:34;2.55;;;1.70;;
58992;SDS011;44782;0.000;0.000;2022-10-24T03:00:50;2.08;;;1.58;;
58992;SDS011;44782;0.000;0.000;2022-10-24T03:03:05;2.05;;;1.50;;
58992;SDS011;44782;0.000;0.000;2022-10-24T03:05:21;2.92;;;1.50;;
58992;SDS011;44782;0.000;0.000;2022-10-24T03:07:36;2.95;;;1.55;;
58992;SDS011;44782;0.000;0.000;2022-10-24T03:09:52;5.25;;;1.65;;
58992;SDS011;44782;0.000;0.000;2022-10-24T03:12:08;2.83;;;1.70;;
58992;SDS011;44782;0.000;0.000;2022-10-24T03:14:27;2.75;;;1.73;;
58992;SDS011;44782;0.000;0.000;2022-10-24T03:16:43;3.63;;;1.73;;
58992;SDS011;44782;0.000;0.000;2022-10-24T03:18:59;2.77;;;1.53;;
58992;SDS011;44782;0.000;0.000;2022-10-24T03:21:14;2.70;;;1.70;;
58992;SDS011;44782;0.000;0.000;2022-10-24T03:23:30;3.00;;;1.60;;
58992;SDS011;44782;0.000;0.000;2022-10-24T03:25:46;3.13;;;1.70;;
58992;SDS011;44782;0.000;0.000;2022-10-24T03:28:01;4.32;;;1.75;;
58992;SDS011;44782;0.000;0.000;2022-10-24T03:30:17;2.28;;;1.50;;
58992;SDS011;44782;0.000;0.000;2022-10-24T03:32:33;2.63;;;1.42;;
58992;SDS011;44782;0.000;0.000;2022-10-24T03:34:49;3.10;;;1.80;;
58992;SDS011;44782;0.000;0.000;2022-10-24T03:37:05;3.05;;;1.60;;
58992;SDS011;44782;0.000;0.000;2022-10-24T03:39:20;2.88;;;1.50;;
58992;SDS011;44782;0.000;0.000;2022-10-24T03:41:36;3.15;;;1.63;;
58992;SDS011;44782;0.000;0.000;2022-10-24T03:43:51;3.10;;;1.60;;
58992;SDS011;44782;0.000;0.000;2022-10-24T03:46:07;3.13;;;1.80;;
58992;SDS011;44782;0.000;0.000;2022-10-24T03:48:23;3.15;;;1.65;;
58992;SDS011;44782;0.000;0.000;2022-10-24T03:50:38;2.75;;;1.80;;
58992;SDS011;44782;0.000;0.000;2022-10-24T03:52:54;3.03;;;1.60;;
58992;SDS011;44782;0.000;0.000;2022-10-24T03:55:10;2.30;;;1.45;;
58992;SDS011;44782;0.000;0.000;2022-10-24T03:57:26;4.75;;;1.60;;
58992;SDS011;44782;0.000;0.000;2022-10-24T03:59:42;3.22;;;1.67;;
58992;SDS011;44782;0.000;0.000;2022-10-24T04:01:57;4.55;;;1.88;;
58992;SDS011;44782;0.000;0.000;2022-10-24T04:04:15;4.35;;;1.92;;
58992;SDS011;44782;0.000;0.000;2022-10-24T04:06:30;3.30;;;1.50;;
58992;SDS011;44782;0.000;0.000;2022-10-24T04:08:46;3.88;;;1.70;;
58992;SDS011;44782;0.000;0.000;2022-10-24T04:11:02;3.25;;;1.70;;
58992;SDS011;44782;0.000;0.000;2022-10-24T04:13:18;4.60;;;2.10;;
58992;SDS011;44782;0.000;0.000;2022-10-24T04:15:34;4.18;;;1.90;;
58992;SDS011;44782;0.000;0.000;2022-10-24T04:17:49;3.50;;;1.70;;
58992;SDS011;44782;0.000;0.000;2022-10-24T04:20:05;2.55;;;1.73;;
58992;SDS011;44782;0.000;0.000;2022-10-24T04:22:21;4.15;;;1.70;;
58992;SDS011;44782;0.000;0.000;2022-10-24T04:24:37;3.67;;;1.70;;
58992;SDS011;44782;0.000;0.000;2022-10-24T04:26:53;3.28;;;1.60;;
58992;SDS011;44782;0.000;0.000;2022-10-24T04:29:09;3.97;;;1.80;;
58992;SDS011;44782;0.000;0.000;2022-10-24T04:31:24;3.17;;;1.90;;
58992;SDS011;44782;0.000;0.000;2022-10-24T04:33:40;4.50;;;2.10;;
58992;SDS011;44782;0.000;0.000;2022-10-24T04:35:56;2.53;;;1.70;;
58992;SDS011;44782;0.000;0.000;2022-10-24T04:38:11;4.10;;;2.10;;
58992;SDS011;44782;0.000;0.000;2022-10-24T04:40:27;3.73;;;1.87;;
58992;SDS011;44782;0.000;0.000;2022-10-24T04:42:42;3.20;;;1.73;;
58992;SDS011;44782;0.000;0.000;2022-10-24T04:44:58;3.67;;;1.93;;
58992;SDS011;44782;0.000;0.000;2022-10-24T04:47:14;3.93;;;1.90;;
58992;SDS011;44782;0.000;0.000;2022-10-24T04:49:29;4.60;;;2.17;;
58992;SDS011;44782;0.000;0.000;2022-10-24T04:51:45;5.53;;;2.17;;
58992;SDS011;44782;0.000;0.000;2022-10-24T04:54:00;3.53;;;1.90;;
58992;SDS011;44782;0.000;0.000;2022-10-24T04:56:16;2.97;;;1.73;;
58992;SDS011;44782;0.000;0.000;2022-10-24T04:58:32;4.20;;;1.70;;
58992;SDS011;44782;0.000;0.000;2022-10-24T05:00:48;5.30;;;1.77;;
58992;SDS011;44782;0.000;0.000;2022-10-24T05:03:04;3.97;;;1.80;;
58992;SDS011;44782;0.000;0.000;2022-10-24T05:05:20;2.83;;;1.70;;
58992;SDS011;44782;0.000;0.000;2022-10-24T05:07:35;2.73;;;1.80;;
58992;SDS011;44782;0.000;0.000;2022-10-24T05:09:51;3.47;;;2.00;;
58992;SDS011;44782;0.000;0.000;2022-10-24T05:12:07;3.30;;;1.73;;
58992;SDS011;44782;0.000;0.000;2022-10-24T05:14:22;3.00;;;1.67;;
58992;SDS011;44782;0.000;0.000;2022-10-24T05:16:38;3.30;;;1.87;;
58992;SDS011;44782;0.000;0.000;2022-10-24T05:18:54;2.37;;;1.60;;
58992;SDS011;44782;0.000;0.000;2022-10-24T05:21:10;2.87;;;1.70;;
58992;SDS011;44782;0.000;0.000;2022-10-24T05:23:26;3.80;;;1.70;;
58992;SDS011;44782;0.000;0.000;2022-10-24T05:25:42;3.07;;;1.70;;
58992;SDS011;44782;0.000;0.000;2022-10-24T05:27:57;3.10;;;1.70;;
58992;SDS011;44782;0.000;0.000;2022-10-24T05:30:13;2.20;;;1.80;;
58992;SDS011;44782;0.000;0.000;2022-10-24T05:32:29;3.70;;;1.93;;
58992;SDS011;44782;0.000;0.000;2022-10-24T05:34:45;3.00;;;1.80;;
58992;SDS011;44782;0.000;0.000;2022-10-24T05:37:01;3.80;;;1.93;;
58992;SDS011;44782;0.000;0.000;2022-10-24T05:39:16;3.40;;;2.10;;
58992;SDS011;44782;0.000;0.000;2022-10-24T05:41:32;4.20;;;2.40;;
58992;SDS011;44782;0.000;0.000;2022-10-24T05:43:48;3.83;;;2.43;;
58992;SDS011;44782;0.000;0.000;2022-10-24T05:46:04;2.93;;;2.27;;
58992;SDS011;44782;0.000;0.000;2022-10-24T05:48:21;5.70;;;2.70;;
58992;SDS011;44782;0.000;0.000;2022-10-24T05:50:36;5.23;;;2.67;;
58992;SDS011;44782;0.000;0.000;2022-10-24T05:52:52;3.63;;;1.90;;
58992;SDS011;44782;0.000;0.000;2022-10-24T05:55:08;4.50;;;2.47;;
58992;SDS011;44782;0.000;0.000;2022-10-24T05:57:24;3.93;;;2.17;;
58992;SDS011;44782;0.000;0.000;2022-10-24T05:59:39;3.93;;;2.37;;
58992;SDS011;44782;0.000;0.000;2022-10-24T06:01:55;6.30;;;2.47;;
58992;SDS011;44782;0.000;0.000;2022-10-24T06:04:11;4.93;;;2.30;;
58992;SDS011;44782;0.000;0.000;2022-10-24T06:06:26;5.87;;;2.60;;
58992;SDS011;44782;0.000;0.000;2022-10-24T06:08:42;6.37;;;3.00;;
58992;SDS011;44782;0.000;0.000;2022-10-24T06:10:58;6.57;;;2.83;;
58992;SDS011;44782;0.000;0.000;2022-10-24T06:13:14;5.90;;;2.70;;
58992;SDS011;44782;0.000;0.000;2022-10-24T06:15:30;6.33;;;3.40;;
58992;SDS011;44782;0.000;0.000;2022-10-24T06:17:46;7.20;;;3.20;;
58992;SDS011;44782;0.000;0.000;2022-10-24T06:20:02;5.93;;;3.17;;
58992;SDS011;44782;0.000;0.000;2022-10-24T06:22:18;6.80;;;3.30;;
58992;SDS011;44782;0.000;0.000;2022-10-24T06:24:34;6.67;;;3.23;;
58992;SDS011;44782;0.000;0.000;2022-10-24T06:26:51;5.87;;;3.30;;
58992;SDS011;44782;0.000;0.000;2022-10-24T06:29:06;6.83;;;3.20;;
58992;SDS011;44782;0.000;0.000;2022-10-24T06:31:22;6.23;;;3.10;;
58992;SDS011;44782;0.000;0.000;2022-10-24T06:33:39;6.90;;;3.20;;
58992;SDS011;44782;0.000;0.000;2022-10-24T06:35:58;8.17;;;3.27;;
58992;SDS011;44782;0.000;0.000;2022-10-24T06:38:19;5.03;;;3.10;;
58992;SDS011;44782;0.000;0.000;2022-10-24T06:40:38;5.77;;;2.90;;
58992;SDS011;44782;0.000;0.000;2022-10-24T06:42:55;5.47;;;2.90;;
58992;SDS011;44782;0.000;0.000;2022-10-24T06:45:11;6.67;;;2.73;;
58992;SDS011;44782;0.000;0.000;2022-10-24T06:47:27;5.80;;;3.00;;
58992;SDS011;44782;0.000;0.000;2022-10-24T06:49:42;5.83;;;2.70;;
58992;SDS011;44782;0.000;0.000;2022-10-24T06:51:58;5.67;;;2.60;;
58992;SDS011;44782;0.000;0.000;2022-10-24T06:54:14;4.77;;;2.70;;
58992;SDS011;44782;0.000;0.000;2022-10-24T06:56:29;5.77;;;2.80;;
58992;SDS011;44782;0.000;0.000;2022-10-24T06:58:45;6.67;;;2.73;;
58992;SDS011;44782;0.000;0.000;2022-10-24T07:01:08;6.70;;;2.90;;
58992;SDS011;44782;0.000;0.000;2022-10-24T07:03:25;4.97;;;2.50;;
58992;SDS011;44782;0.000;0.000;2022-10-24T07:05:41;6.90;;;2.83;;
58992;SDS011;44782;0.000;0.000;2022-10-24T07:07:56;5.30;;;2.73;;
58992;SDS011;44782;0.000;0.000;2022-10-24T07:10:12;6.33;;;2.93;;
58992;SDS011;44782;0.000;0.000;2022-10-24T07:12:28;4.53;;;2.50;;
58992;SDS011;44782;0.000;0.000;2022-10-24T07:14:44;5.30;;;2.50;;
58992;SDS011;44782;0.000;0.000;2022-10-24T07:16:59;4.27;;;2.60;;
58992;SDS011;44782;0.000;0.000;2022-10-24T07:19:15;6.07;;;2.77;;
58992;SDS011;44782;0.000;0.000;2022-10-24T07:21:31;6.50;;;2.57;;
58992;SDS011;44782;0.000;0.000;2022-10-24T07:23:48;5.07;;;2.53;;
58992;SDS011;44782;0.000;0.000;2022-10-24T07:26:06;4.90;;;2.73;;
58992;SDS011;44782;0.000;0.000;2022-10-24T07:28:24;5.17;;;2.70;;
58992;SDS011;44782;0.000;0.000;2022-10-24T07:30:39;5.80;;;2.90;;
58992;SDS011;44782;0.000;0.000;2022-10-24T07:32:58;6.40;;;3.10;;
58992;SDS011;44782;0.000;0.000;2022-10-24T07:35:14;4.80;;;2.60;;
58992;SDS011;44782;0.000;0.000;2022-10-24T07:37:29;5.83;;;2.90;;
58992;SDS011;44782;0.000;0.000;2022-10-24T07:39:45;5.27;;;2.80;;
58992;SDS011;44782;0.000;0.000;2022-10-24T07:42:01;5.87;;;2.93;;
58992;SDS011;44782;0.000;0.000;2022-10-24T07:44:16;4.17;;;2.70;;
58992;SDS011;44782;0.000;0.000;2022-10-24T07:46:32;5.13;;;2.60;;
58992;SDS011;44782;0.000;0.000;2022-10-24T07:48:48;4.57;;;2.70;;
58992;SDS011;44782;0.000;0.000;2022-10-24T07:51:06;6.80;;;2.80;;
58992;SDS011;44782;0.000;0.000;2022-10-24T07:53:26;6.63;;;2.90;;
58992;SDS011;44782;0.000;0.000;2022-10-24T07:55:42;4.30;;;2.67;;
58992;SDS011;44782;0.000;0.000;2022-10-24T07:57:57;4.57;;;2.63;;
58992;SDS011;44782;0.000;0.000;2022-10-24T08:00:13;4.83;;;2.60;;
58992;SDS011;44782;0.000;0.000;2022-10-24T08:02:29;6.03;;;2.63;;
58992;SDS011;44782;0.000;0.000;2022-10-24T08:04:46;5.83;;;2.63;;
58992;SDS011;44782;0.000;0.000;2022-10-24T08:07:02;5.77;;;2.63;;
58992;SDS011;44782;0.000;0.000;2022-10-24T08:09:18;4.90;;;2.60;;
58992;SDS011;44782;0.000;0.000;2022-10-24T08:11:34;3.83;;;2.30;;
58992;SDS011;44782;0.000;0.000;2022-10-24T08:13:50;5.20;;;2.97;;
58992;SDS011;44782;0.000;0.000;2022-10-24T08:16:08;4.47;;;2.83;;
58992;SDS011;44782;0.000;0.000;2022-10-24T08:18:26;4.53;;;2.67;;
58992;SDS011;44782;0.000;0.000;2022-10-24T08:20:41;4.33;;;2.30;;
58992;SDS011;44782;0.000;0.000;2022-10-24T08:22:57;4.70;;;2.70;;
58992;SDS011;44782;0.000;0.000;2022-10-24T08:25:13;6.10;;;2.47;;
58992;SDS011;44782;0.000;0.000;2022-10-24T08:27:28;4.53;;;2.50;;
58992;SDS011;44782;0.000;0.000;2022-10-24T08:29:44;4.47;;;2.40;;
58992;SDS011;44782;0.000;0.000;2022-10-24T08:31:59;4.43;;;2.27;;
58992;SDS011;44782;0.000;0.000;2022-10-24T08:34:15;4.23;;;2.50;;
58992;SDS011;44782;0.000;0.000;2022-10-24T08:36:33;4.10;;;2.37;;
58992;SDS011;44782;0.000;0.000;2022-10-24T08:38:49;3.93;;;2.30;;
58992;SDS011;44782;0.000;0.000;2022-10-24T08:41:05;6.30;;;2.70;;
58992;SDS011;44782;0.000;0.000;2022-10-24T08:43:24;6.07;;;2.50;;
58992;SDS011;44782;0.000;0.000;2022-10-24T08:48:13;5.33;;;2.50;;
58992;SDS011;44782;0.000;0.000;2022-10-24T08:50:35;4.67;;;2.27;;
58992;SDS011;44782;0.000;0.000;2022-10-24T08:53:05;6.60;;;2.60;;
58992;SDS011;44782;0.000;0.000;2022-10-24T08:55:31;4.70;;;2.37;;
58992;SDS011;44782;0.000;0.000;2022-10-24T08:58:01;3.83;;;2.30;;
58992;SDS011;44782;0.000;0.000;2022-10-24T09:00:22;5.17;;;2.50;;
58992;SDS011;44782;0.000;0.000;2022-10-24T09:02:47;4.33;;;2.43;;
58992;SDS011;44782;0.000;0.000;2022-10-24T09:07:50;4.73;;;2.30;;
58992;SDS011;44782;0.000;0.000;2022-10-24T09:10:45;3.30;;;2.23;;
58992;SDS011;44782;0.000;0.000;2022-10-24T09:12:57;5.00;;;2.10;;
58992;SDS011;44782;0.000;0.000;2022-10-24T09:15:14;5.33;;;2.50;;
58992;SDS011;44782;0.000;0.000;2022-10-24T09:17:41;6.03;;;2.60;;
58992;SDS011;44782;0.000;0.000;2022-10-24T09:20:00;4.20;;;2.00;;
58992;SDS011;44782;0.000;0.000;2022-10-24T09:22:22;4.13;;;2.23;;
58992;SDS011;44782;0.000;0.000;2022-10-24T09:24:46;3.40;;;2.20;;
58992;SDS011;44782;0.000;0.000;2022-10-24T09:27:10;5.33;;;2.47;;
58992;SDS011;44782;0.000;0.000;2022-10-24T09:29:43;4.07;;;2.10;;
58992;SDS011;44782;0.000;0.000;2022-10-24T09:31:59;3.60;;;2.10;;
58992;SDS011;44782;0.000;0.000;2022-10-24T09:34:16;4.60;;;2.17;;
58992;SDS011;44782;0.000;0.000;2022-10-24T09:36:31;6.73;;;2.47;;
58992;SDS011;44782;0.000;0.000;2022-10-24T09:38:47;5.53;;;2.17;;
58992;SDS011;44782;0.000;0.000;2022-10-24T09:43:27;4.00;;;2.33;;
58992;SDS011;44782;0.000;0.000;2022-10-24T09:51:27;4.57;;;2.10;;
58992;SDS011;44782;0.000;0.000;2022-10-24T09:54:49;4.10;;;2.03;;
58992;SDS011;44782;0.000;0.000;2022-10-24T09:56:33;3.07;;;1.90;;
58992;SDS011;44782;0.000;0.000;2022-10-24T09:58:52;4.07;;;2.40;;
58992;SDS011;44782;0.000;0.000;2022-10-24T10:03:29;3.40;;;2.00;;
58992;SDS011;44782;0.000;0.000;2022-10-24T10:05:45;4.13;;;2.10;;
58992;SDS011;44782;0.000;0.000;2022-10-24T10:08:08;3.30;;;1.90;;
58992;SDS011;44782;0.000;0.000;2022-10-24T10:10:28;3.13;;;2.00;;
58992;SDS011;44782;0.000;0.000;2022-10-24T10:13:00;2.93;;;2.00;;
58992;SDS011;44782;0.000;0.000;2022-10-24T10:15:35;3.33;;;2.20;;
58992;SDS011;44782;0.000;0.000;2022-10-24T10:17:54;4.13;;;2.07;;
58992;SDS011;44782;0.000;0.000;2022-10-24T10:20:21;3.03;;;2.00;;
58992;SDS011;44782;0.000;0.000;2022-10-24T10:22:39;3.87;;;2.07;;
58992;SDS011;44782;0.000;0.000;2022-10-24T10:24:55;4.17;;;1.93;;
58992;SDS011;44782;0.000;0.000;2022-10-24T10:27:28;4.73;;;2.40;;
58992;SDS011;44782;0.000;0.000;2022-10-24T10:30:36;4.70;;;2.20;;
58992;SDS011;44782;0.000;0.000;2022-10-24T10:35:01;5.20;;;1.90;;
58992;SDS011;44782;0.000;0.000;2022-10-24T10:37:28;4.60;;;2.10;;
58992;SDS011;44782;0.000;0.000;2022-10-24T10:42:08;5.53;;;1.90;;
58992;SDS011;44782;0.000;0.000;2022-10-24T10:49:33;2.87;;;2.10;;
58992;SDS011;44782;0.000;0.000;2022-10-24T10:51:56;5.50;;;2.20;;
58992;SDS011;44782;0.000;0.000;2022-10-24T10:54:25;3.37;;;1.80;;
58992;SDS011;44782;0.000;0.000;2022-10-24T10:56:52;3.03;;;1.90;;
58992;SDS011;44782;0.000;0.000;2022-10-24T11:01:33;3.97;;;2.00;;
58992;SDS011;44782;0.000;0.000;2022-10-24T11:11:16;3.47;;;2.00;;
58992;SDS011;44782;0.000;0.000;2022-10-24T11:13:41;4.10;;;1.93;;
58992;SDS011;44782;0.000;0.000;2022-10-24T11:16:03;4.30;;;1.97;;
58992;SDS011;44782;0.000;0.000;2022-10-24T11:18:34;4.70;;;2.05;;
58992;SDS011;44782;0.000;0.000;2022-10-24T11:20:54;2.75;;;1.83;;
58992;SDS011;44782;0.000;0.000;2022-10-24T11:23:13;3.53;;;1.80;;
58992;SDS011;44782;0.000;0.000;2022-10-24T11:25:44;3.40;;;2.13;;
58992;SDS011;44782;0.000;0.000;2022-10-24T11:30:19;3.50;;;1.90;;
58992;SDS011;44782;0.000;0.000;2022-10-24T11:37:31;4.47;;;2.20;;
58992;SDS011;44782;0.000;0.000;2022-10-24T11:44:40;3.57;;;1.77;;
58992;SDS011;44782;0.000;0.000;2022-10-24T11:50:09;4.90;;;1.90;;
58992;SDS011;44782;0.000;0.000;2022-10-24T11:52:42;3.53;;;2.00;;
58992;SDS011;44782;0.000;0.000;2022-10-24T11:55:07;4.67;;;2.30;;
58992;SDS011;44782;0.000;0.000;2022-10-24T11:57:32;4.37;;;2.13;;
58992;SDS011;44782;0.000;0.000;2022-10-24T11:59:52;3.65;;;2.00;;
58992;SDS011;44782;0.000;0.000;2022-10-24T12:05:04;5.20;;;2.07;;
58992;SDS011;44782;0.000;0.000;2022-10-24T12:13:15;3.28;;;1.90;;
58992;SDS011;44782;0.000;0.000;2022-10-24T12:18:56;2.75;;;1.80;;
58992;SDS011;44782;0.000;0.000;2022-10-24T12:21:17;3.28;;;2.00;;
58992;SDS011;44782;0.000;0.000;2022-10-24T12:23:36;3.72;;;2.00;;
58992;SDS011;44782;0.000;0.000;2022-10-24T12:26:04;3.08;;;1.98;;
58992;SDS011;44782;0.000;0.000;2022-10-24T12:28:27;5.65;;;2.30;;
58992;SDS011;44782;0.000;0.000;2022-10-24T12:30:42;3.75;;;2.10;;
58992;SDS011;44782;0.000;0.000;2022-10-24T12:33:40;4.28;;;2.30;;
58992;SDS011;44782;0.000;0.000;2022-10-24T12:35:57;3.38;;;2.00;;
58992;SDS011;44782;0.000;0.000;2022-10-24T12:38:17;4.28;;;2.03;;
58992;SDS011;44782;0.000;0.000;2022-10-24T12:43:06;2.88;;;1.83;;
58992;SDS011;44782;0.000;0.000;2022-10-24T12:45:29;4.18;;;1.80;;
58992;SDS011;44782;0.000;0.000;2022-10-24T12:54:50;3.50;;;1.95;;
58992;SDS011;44782;0.000;0.000;2022-10-24T12:59:29;3.55;;;1.88;;
58992;SDS011;44782;0.000;0.000;2022-10-24T13:01:47;2.85;;;1.80;;
58992;SDS011;44782;0.000;0.000;2022-10-24T13:06:35;4.80;;;2.20;;
58992;SDS011;44782;0.000;0.000;2022-10-24T13:11:48;3.92;;;2.10;;
58992;SDS011;44782;0.000;0.000;2022-10-24T13:17:12;2.50;;;1.80;;
58992;SDS011;44782;0.000;0.000;2022-10-24T13:19:42;3.22;;;1.80;;
58992;SDS011;44782;0.000;0.000;2022-10-24T13:21:58;2.38;;;1.90;;
58992;SDS011;44782;0.000;0.000;2022-10-24T13:28:56;3.10;;;1.63;;
58992;SDS011;44782;0.000;0.000;2022-10-24T13:35:46;3.35;;;1.90;;
58992;SDS011;44782;0.000;0.000;2022-10-24T13:38:02;3.47;;;2.00;;
58992;SDS011;44782;0.000;0.000;2022-10-24T13:40:30;3.10;;;1.80;;
58992;SDS011;44782;0.000;0.000;2022-10-24T13:42:56;3.38;;;1.73;;
58992;SDS011;44782;0.000;0.000;2022-10-24T13:47:43;3.17;;;1.80;;
58992;SDS011;44782;0.000;0.000;2022-10-24T13:50:10;2.83;;;1.67;;
58992;SDS011;44782;0.000;0.000;2022-10-24T13:55:04;3.33;;;1.95;;
58992;SDS011;44782;0.000;0.000;2022-10-24T13:57:48;3.53;;;1.70;;
58992;SDS011;44782;0.000;0.000;2022-10-24T14:00:07;2.58;;;1.80;;
58992;SDS011;44782;0.000;0.000;2022-10-24T14:02:37;2.83;;;1.63;;
58992;SDS011;44782;0.000;0.000;2022-10-24T14:04:55;2.67;;;1.65;;
58992;SDS011;44782;0.000;0.000;2022-10-24T14:07:12;3.83;;;2.00;;
58992;SDS011;44782;0.000;0.000;2022-10-24T14:09:37;3.63;;;1.70;;
58992;SDS011;44782;0.000;0.000;2022-10-24T14:11:57;2.78;;;1.73;;
58992;SDS011;44782;0.000;0.000;2022-10-24T14:14:33;2.72;;;1.70;;
58992;SDS011;44782;0.000;0.000;2022-10-24T14:17:03;2.42;;;1.65;;
58992;SDS011;44782;0.000;0.000;2022-10-24T14:19:22;2.10;;;1.40;;
58992;SDS011;44782;0.000;0.000;2022-10-24T14:21:40;1.90;;;1.45;;
58992;SDS011;44782;0.000;0.000;2022-10-24T14:23:58;3.03;;;1.70;;
58992;SDS011;44782;0.000;0.000;2022-10-24T14:26:19;2.73;;;1.70;;
58992;SDS011;44782;0.000;0.000;2022-10-24T14:28:36;2.93;;;1.80;;
58992;SDS011;44782;0.000;0.000;2022-10-24T14:31:01;3.37;;;1.70;;
58992;SDS011;44782;0.000;0.000;2022-10-24T14:33:22;2.63;;;1.53;;
58992;SDS011;44782;0.000;0.000;2022-10-24T14:35:40;2.57;;;1.60;;
58992;SDS011;44782;0.000;0.000;2022-10-24T14:37:56;3.17;;;1.70;;
58992;SDS011;44782;0.000;0.000;2022-10-24T14:40:15;3.50;;;1.60;;
58992;SDS011;44782;0.000;0.000;2022-10-24T14:42:32;3.27;;;1.70;;
58992;SDS011;44782;0.000;0.000;2022-10-24T14:44:48;3.03;;;1.93;;
58992;SDS011;44782;0.000;0.000;2022-10-24T14:47:16;2.13;;;1.50;;
58992;SDS011;44782;0.000;0.000;2022-10-24T14:49:37;2.33;;;1.63;;
58992;SDS011;44782;0.000;0.000;2022-10-24T14:51:57;1.77;;;1.40;;
58992;SDS011;44782;0.000;0.000;2022-10-24T14:54:16;2.07;;;1.53;;
58992;SDS011;44782;0.000;0.000;2022-10-24T14:56:38;2.40;;;1.70;;
58992;SDS011;44782;0.000;0.000;2022-10-24T14:58:54;2.13;;;1.50;;
58992;SDS011;44782;0.000;0.000;2022-10-24T15:01:16;1.77;;;1.40;;
58992;SDS011;44782;0.000;0.000;2022-10-24T15:03:33;2.13;;;1.50;;
58992;SDS011;44782;0.000;0.000;2022-10-24T15:06:09;3.07;;;1.73;;
58992;SDS011;44782;0.000;0.000;2022-10-24T15:08:33;2.17;;;1.40;;
58992;SDS011;44782;0.000;0.000;2022-10-24T15:11:01;2.03;;;1.50;;
58992;SDS011;44782;0.000;0.000;2022-10-24T15:13:30;2.80;;;1.60;;
58992;SDS011;44782;0.000;0.000;2022-10-24T15:15:57;2.97;;;1.50;;
58992;SDS011;44782;0.000;0.000;2022-10-24T15:20:38;2.80;;;1.50;;
58992;SDS011;44782;0.000;0.000;2022-10-24T15:22:56;1.93;;;1.30;;
58992;SDS011;44782;0.000;0.000;2022-10-24T15:25:18;2.40;;;1.40;;
58992;SDS011;44782;0.000;0.000;2022-10-24T15:27:39;1.93;;;1.50;;
58992;SDS011;44782;0.000;0.000;2022-10-24T15:29:56;3.17;;;1.60;;
58992;SDS011;44782;0.000;0.000;2022-10-24T15:32:12;1.67;;;1.40;;
58992;SDS011;44782;0.000;0.000;2022-10-24T15:34:27;2.57;;;1.40;;
58992;SDS011;44782;0.000;0.000;2022-10-24T15:36:47;2.10;;;1.40;;
58992;SDS011;44782;0.000;0.000;2022-10-24T15:39:06;2.10;;;1.57;;
58992;SDS011;44782;0.000;0.000;2022-10-24T15:41:26;1.50;;;1.37;;
58992;SDS011;44782;0.000;0.000;2022-10-24T15:43:42;1.67;;;1.33;;
58992;SDS011;44782;0.000;0.000;2022-10-24T15:45:58;2.77;;;1.50;;
58992;SDS011;44782;0.000;0.000;2022-10-24T15:48:13;2.50;;;1.57;;
58992;SDS011;44782;0.000;0.000;2022-10-24T15:50:29;3.00;;;1.57;;
58992;SDS011;44782;0.000;0.000;2022-10-24T15:52:46;3.50;;;1.63;;
58992;SDS011;44782;0.000;0.000;2022-10-24T15:55:09;2.20;;;1.60;;
58992;SDS011;44782;0.000;0.000;2022-10-24T15:57:30;2.20;;;1.50;;
58992;SDS011;44782;0.000;0.000;2022-10-24T15:59:46;4.17;;;1.70;;
58992;SDS011;44782;0.000;0.000;2022-10-24T16:02:02;1.77;;;1.47;;
58992;SDS011;44782;0.000;0.000;2022-10-24T16:04:17;1.47;;;1.37;;
58992;SDS011;44782;0.000;0.000;2022-10-24T16:06:34;1.83;;;1.30;;
58992;SDS011;44782;0.000;0.000;2022-10-24T16:08:50;1.60;;;1.20;;
58992;SDS011;44782;0.000;0.000;2022-10-24T16:11:08;1.87;;;1.37;;
58992;SDS011;44782;0.000;0.000;2022-10-24T16:13:25;2.80;;;1.60;;